sensor_id;sensor_type;location;lat;lon;timestamp;pressure;altitude;pressure_sealevel;temperature
28305;BMP280;15569;42.652;23.040;2023-08-07T00:00:31;92523.13;;;23.06
28305;BMP280;15569;42.652;23.040;2023-08-07T00:02:56;92510.72;;;22.97
28305;BMP280;15569;42.652;23.040;2023-08-07T00:05:22;92532.16;;;23.00
28305;BMP280;15569;42.652;23.040;2023-08-07T00:07:47;92536.38;;;22.93
28305;BMP280;15569;42.652;23.040;2023-08-07T00:10:13;92538.50;;;22.86
28305;BMP280;15569;42.652;23.040;2023-08-07T00:12:39;92536.44;;;22.87
28305;BMP280;15569;42.652;23.040;2023-08-07T00:15:05;92525.34;;;22.85
28305;BMP280;15569;42.652;23.040;2023-08-07T00:17:31;92528.84;;;22.77
28305;BMP280;15569;42.652;23.040;2023-08-07T00:19:57;92529.53;;;22.80
28305;BMP280;15569;42.652;23.040;2023-08-07T00:22:22;92521.22;;;22.84
28305;BMP280;15569;42.652;23.040;2023-08-07T00:24:48;92528.13;;;22.87
28305;BMP280;15569;42.652;23.040;2023-08-07T00:27:13;92537.09;;;22.87
28305;BMP280;15569;42.652;23.040;2023-08-07T00:29:39;92527.50;;;22.70
28305;BMP280;15569;42.652;23.040;2023-08-07T00:32:05;92524.00;;;22.78
28305;BMP280;15569;42.652;23.040;2023-08-07T00:34:30;92523.94;;;22.86
28305;BMP280;15569;42.652;23.040;2023-08-07T00:36:56;92533.66;;;22.87
28305;BMP280;15569;42.652;23.040;2023-08-07T00:39:21;92527.44;;;22.80
28305;BMP280;15569;42.652;23.040;2023-08-07T00:41:47;92529.50;;;22.86
28305;BMP280;15569;42.652;23.040;2023-08-07T00:44:13;92530.19;;;22.86
28305;BMP280;15569;42.652;23.040;2023-08-07T00:46:38;92535.69;;;22.90
28305;BMP280;15569;42.652;23.040;2023-08-07T00:49:05;92535.03;;;22.90
28305;BMP280;15569;42.652;23.040;2023-08-07T00:51:32;92534.38;;;22.81
28305;BMP280;15569;42.652;23.040;2023-08-07T00:53:58;92537.16;;;22.83
28305;BMP280;15569;42.652;23.040;2023-08-07T00:56:25;92539.94;;;22.77
28305;BMP280;15569;42.652;23.040;2023-08-07T00:58:51;92551.72;;;22.76
28305;BMP280;15569;42.652;23.040;2023-08-07T01:01:16;92551.06;;;22.75
28305;BMP280;15569;42.652;23.040;2023-08-07T01:03:42;92557.28;;;22.70
28305;BMP280;15569;42.652;23.040;2023-08-07T01:06:08;92558.00;;;22.72
28305;BMP280;15569;42.652;23.040;2023-08-07T01:08:33;92562.84;;;22.72
28305;BMP280;15569;42.652;23.040;2023-08-07T01:14:00;92571.81;;;22.74
28305;BMP280;15569;42.652;23.040;2023-08-07T01:16:35;92551.78;;;22.68
28305;BMP280;15569;42.652;23.040;2023-08-07T01:19:02;92562.16;;;22.69
28305;BMP280;15569;42.652;23.040;2023-08-07T01:21:28;92565.63;;;22.68
28305;BMP280;15569;42.652;23.040;2023-08-07T01:23:54;92569.81;;;22.63
28305;BMP280;15569;42.652;23.040;2023-08-07T01:26:20;92564.25;;;22.63
28305;BMP280;15569;42.652;23.040;2023-08-07T01:28:58;92564.97;;;22.59
28305;BMP280;15569;42.652;23.040;2023-08-07T01:34:14;92566.38;;;22.60
28305;BMP280;15569;42.652;23.040;2023-08-07T01:36:42;92570.50;;;22.61
28305;BMP280;15569;42.652;23.040;2023-08-07T01:39:09;92571.91;;;22.56
28305;BMP280;15569;42.652;23.040;2023-08-07T01:41:35;92565.69;;;22.56
28305;BMP280;15569;42.652;23.040;2023-08-07T01:44:01;92562.22;;;22.55
28305;BMP280;15569;42.652;23.040;2023-08-07T01:46:26;92580.22;;;22.54
28305;BMP280;15569;42.652;23.040;2023-08-07T01:48:52;92580.25;;;22.50
28305;BMP280;15569;42.652;23.040;2023-08-07T01:51:17;92565.72;;;22.46
28305;BMP280;15569;42.652;23.040;2023-08-07T01:53:43;92567.13;;;22.41
28305;BMP280;15569;42.652;23.040;2023-08-07T01:56:08;92563.69;;;22.38
28305;BMP280;15569;42.652;23.040;2023-08-07T01:58:34;92572.69;;;22.37
28305;BMP280;15569;42.652;23.040;2023-08-07T02:00:59;92577.53;;;22.32
28305;BMP280;15569;42.652;23.040;2023-08-07T02:03:24;92571.28;;;22.32
28305;BMP280;15569;42.652;23.040;2023-08-07T02:05:50;92574.06;;;22.40
28305;BMP280;15569;42.652;23.040;2023-08-07T02:08:15;92574.75;;;22.38
28305;BMP280;15569;42.652;23.040;2023-08-07T02:10:41;92576.84;;;22.34
28305;BMP280;15569;42.652;23.040;2023-08-07T02:13:06;92586.53;;;22.39
28305;BMP280;15569;42.652;23.040;2023-08-07T02:15:32;92592.75;;;22.37
28305;BMP280;15569;42.652;23.040;2023-08-07T02:17:57;92597.63;;;22.35
28305;BMP280;15569;42.652;23.040;2023-08-07T02:20:22;92597.63;;;22.35
28305;BMP280;15569;42.652;23.040;2023-08-07T02:22:48;92594.88;;;22.31
28305;BMP280;15569;42.652;23.040;2023-08-07T02:25:13;92605.91;;;22.29
28305;BMP280;15569;42.652;23.040;2023-08-07T02:27:39;92603.19;;;22.23
28305;BMP280;15569;42.652;23.040;2023-08-07T02:30:05;92602.47;;;22.26
28305;BMP280;15569;42.652;23.040;2023-08-07T02:32:31;92601.78;;;22.26
28305;BMP280;15569;42.652;23.040;2023-08-07T02:34:57;92605.94;;;22.23
28305;BMP280;15569;42.652;23.040;2023-08-07T02:37:22;92605.25;;;22.20
28305;BMP280;15569;42.652;23.040;2023-08-07T02:39:48;92604.56;;;22.14
28305;BMP280;15569;42.652;23.040;2023-08-07T02:42:13;92601.81;;;22.10
28305;BMP280;15569;42.652;23.040;2023-08-07T02:44:39;92599.75;;;22.12
28305;BMP280;15569;42.652;23.040;2023-08-07T02:47:04;92605.28;;;22.14
28305;BMP280;15569;42.652;23.040;2023-08-07T02:49:30;92602.50;;;22.18
28305;BMP280;15569;42.652;23.040;2023-08-07T02:51:55;92597.66;;;22.15
28305;BMP280;15569;42.652;23.040;2023-08-07T02:54:21;92590.78;;;22.04
28305;BMP280;15569;42.652;23.040;2023-08-07T02:56:46;92603.19;;;22.19
28305;BMP280;15569;42.652;23.040;2023-08-07T02:59:13;92593.50;;;22.22
28305;BMP280;15569;42.652;23.040;2023-08-07T03:01:39;92597.63;;;22.21
28305;BMP280;15569;42.652;23.040;2023-08-07T03:04:04;92605.25;;;22.22
28305;BMP280;15569;42.652;23.040;2023-08-07T03:06:30;92605.25;;;22.20
28305;BMP280;15569;42.652;23.040;2023-08-07T03:08:55;92612.88;;;22.18
28305;BMP280;15569;42.652;23.040;2023-08-07T03:11:20;92612.19;;;22.15
28305;BMP280;15569;42.652;23.040;2023-08-07T03:13:46;92616.38;;;22.12
28305;BMP280;15569;42.652;23.040;2023-08-07T03:16:11;92615.66;;;22.12
28305;BMP280;15569;42.652;23.040;2023-08-07T03:18:37;92603.91;;;22.07
28305;BMP280;15569;42.652;23.040;2023-08-07T03:21:02;92617.06;;;22.09
28305;BMP280;15569;42.652;23.040;2023-08-07T03:23:28;92614.28;;;22.03
28305;BMP280;15569;42.652;23.040;2023-08-07T03:26:10;92615.69;;;22.00
28305;BMP280;15569;42.652;23.040;2023-08-07T03:28:36;92615.66;;;22.06
28305;BMP280;15569;42.652;23.040;2023-08-07T03:31:02;92617.72;;;22.05
28305;BMP280;15569;42.652;23.040;2023-08-07T03:33:28;92618.44;;;22.02
28305;BMP280;15569;42.652;23.040;2023-08-07T07:01:01;92699.13;;;23.23
28305;BMP280;15569;42.652;23.040;2023-08-07T07:03:26;92700.28;;;23.60
28305;BMP280;15569;42.652;23.040;2023-08-07T07:05:51;92694.66;;;23.70
28305;BMP280;15569;42.652;23.040;2023-08-07T07:08:17;92696.53;;;23.99
28305;BMP280;15569;42.652;23.040;2023-08-07T07:10:42;92695.00;;;24.14
28305;BMP280;15569;42.652;23.040;2023-08-07T07:13:08;92688.81;;;24.04
28305;BMP280;15569;42.652;23.040;2023-08-07T07:15:35;92684.63;;;24.11
28305;BMP280;15569;42.652;23.040;2023-08-07T07:18:01;92670.22;;;23.90
28305;BMP280;15569;42.652;23.040;2023-08-07T07:20:26;92685.41;;;23.97
28305;BMP280;15569;42.652;23.040;2023-08-07T07:22:52;92679.19;;;23.97
28305;BMP280;15569;42.652;23.040;2023-08-07T07:25:18;92674.00;;;23.45
28305;BMP280;15569;42.652;23.040;2023-08-07T07:27:43;92675.88;;;23.76
28305;BMP280;15569;42.652;23.040;2023-08-07T07:30:09;92672.72;;;23.32
28305;BMP280;15569;42.652;23.040;2023-08-07T07:32:34;92666.88;;;23.72
28305;BMP280;15569;42.652;23.040;2023-08-07T07:35:00;92677.00;;;24.09
28305;BMP280;15569;42.652;23.040;2023-08-07T07:37:25;92675.31;;;24.41
28305;BMP280;15569;42.652;23.040;2023-08-07T07:39:51;92680.66;;;24.63
28305;BMP280;15569;42.652;23.040;2023-08-07T07:42:16;92697.09;;;24.83
28305;BMP280;15569;42.652;23.040;2023-08-07T07:44:42;92692.19;;;24.20
28305;BMP280;15569;42.652;23.040;2023-08-07T07:47:08;92693.31;;;24.48
28305;BMP280;15569;42.652;23.040;2023-08-07T07:49:33;92684.28;;;24.47
28305;BMP280;15569;42.652;23.040;2023-08-07T07:51:59;92678.06;;;24.43
28305;BMP280;15569;42.652;23.040;2023-08-07T07:54:25;92688.91;;;24.67
28305;BMP280;15569;42.652;23.040;2023-08-07T07:56:50;92690.41;;;24.60
28305;BMP280;15569;42.652;23.040;2023-08-07T07:59:16;92687.28;;;24.90
28305;BMP280;15569;42.652;23.040;2023-08-07T08:01:41;92667.75;;;24.94
28305;BMP280;15569;42.652;23.040;2023-08-07T08:04:07;92673.84;;;25.04
28305;BMP280;15569;42.652;23.040;2023-08-07T08:06:32;92677.19;;;25.17
28305;BMP280;15569;42.652;23.040;2023-08-07T08:08:57;92667.31;;;25.28
28305;BMP280;15569;42.652;23.040;2023-08-07T08:11:24;92676.94;;;25.35
28305;BMP280;15569;42.652;23.040;2023-08-07T08:13:50;92653.81;;;25.46
28305;BMP280;15569;42.652;23.040;2023-08-07T08:16:15;92666.16;;;25.57
28305;BMP280;15569;42.652;23.040;2023-08-07T08:18:41;92650.03;;;25.64
28305;BMP280;15569;42.652;23.040;2023-08-07T08:21:06;92651.94;;;25.77
28305;BMP280;15569;42.652;23.040;2023-08-07T08:23:32;92654.50;;;25.92
28305;BMP280;15569;42.652;23.040;2023-08-07T08:25:57;92659.94;;;25.98
28305;BMP280;15569;42.652;23.040;2023-08-07T08:28:23;92657.81;;;26.02
28305;BMP280;15569;42.652;23.040;2023-08-07T08:30:48;92652.31;;;25.05
28305;BMP280;15569;42.652;23.040;2023-08-07T08:33:14;92662.84;;;24.38
28305;BMP280;15569;42.652;23.040;2023-08-07T08:35:40;92656.88;;;24.74
28305;BMP280;15569;42.652;23.040;2023-08-07T08:38:06;92650.66;;;25.24
28305;BMP280;15569;42.652;23.040;2023-08-07T08:40:31;92652.41;;;25.47
28305;BMP280;15569;42.652;23.040;2023-08-07T08:43:00;92646.53;;;25.69
28305;BMP280;15569;42.652;23.040;2023-08-07T08:45:27;92654.50;;;24.38
28305;BMP280;15569;42.652;23.040;2023-08-07T08:47:55;92661.75;;;24.73
28305;BMP280;15569;42.652;23.040;2023-08-07T08:50:24;92665.44;;;25.12
28305;BMP280;15569;42.652;23.040;2023-08-07T08:52:51;92661.47;;;25.46
28305;BMP280;15569;42.652;23.040;2023-08-07T08:55:19;92660.19;;;25.39
28305;BMP280;15569;42.652;23.040;2023-08-07T08:57:46;92661.72;;;25.30
28305;BMP280;15569;42.652;23.040;2023-08-07T09:00:13;92650.34;;;25.44
28305;BMP280;15569;42.652;23.040;2023-08-07T09:02:51;92646.88;;;25.45
28305;BMP280;15569;42.652;23.040;2023-08-07T09:05:18;92634.88;;;25.57
28305;BMP280;15569;42.652;23.040;2023-08-07T09:07:44;92635.09;;;25.85
28305;BMP280;15569;42.652;23.040;2023-08-07T09:10:12;92633.34;;;25.66
28305;BMP280;15569;42.652;23.040;2023-08-07T09:12:40;92640.09;;;25.77
28305;BMP280;15569;42.652;23.040;2023-08-07T09:15:07;92633.53;;;25.95
28305;BMP280;15569;42.652;23.040;2023-08-07T09:17:38;92629.00;;;26.16
28305;BMP280;15569;42.652;23.040;2023-08-07T09:20:04;92643.19;;;26.40
28305;BMP280;15569;42.652;23.040;2023-08-07T09:22:31;92647.59;;;26.27
28305;BMP280;15569;42.652;23.040;2023-08-07T09:24:57;92655.13;;;26.35
28305;BMP280;15569;42.652;23.040;2023-08-07T09:27:25;92646.59;;;26.43
28305;BMP280;15569;42.652;23.040;2023-08-07T09:29:50;92640.03;;;26.58
28305;BMP280;15569;42.652;23.040;2023-08-07T09:32:16;92630.38;;;26.53
28305;BMP280;15569;42.652;23.040;2023-08-07T09:34:44;92633.91;;;26.84
28305;BMP280;15569;42.652;23.040;2023-08-07T09:37:09;92630.88;;;26.96
28305;BMP280;15569;42.652;23.040;2023-08-07T09:39:38;92633.31;;;26.80
28305;BMP280;15569;42.652;23.040;2023-08-07T09:42:04;92639.44;;;26.54
28305;BMP280;15569;42.652;23.040;2023-08-07T09:44:36;92650.03;;;26.45
28305;BMP280;15569;42.652;23.040;2023-08-07T09:47:11;92643.47;;;26.61
28305;BMP280;15569;42.652;23.040;2023-08-07T09:49:38;92651.22;;;26.20
28305;BMP280;15569;42.652;23.040;2023-08-07T09:52:05;92644.91;;;26.21
28305;BMP280;15569;42.652;23.040;2023-08-07T09:54:33;92635.56;;;26.71
28305;BMP280;15569;42.652;23.040;2023-08-07T09:56:59;92630.78;;;27.00
28305;BMP280;15569;42.652;23.040;2023-08-07T09:59:26;92633.16;;;27.18
28305;BMP280;15569;42.652;23.040;2023-08-07T10:33:31;92619.97;;;27.47
28305;BMP280;15569;42.652;23.040;2023-08-07T10:35:57;92629.00;;;27.48
28305;BMP280;15569;42.652;23.040;2023-08-07T10:38:25;92633.47;;;27.65
28305;BMP280;15569;42.652;23.040;2023-08-07T10:43:26;92617.69;;;27.83
28305;BMP280;15569;42.652;23.040;2023-08-07T10:45:53;92621.53;;;27.96
28305;BMP280;15569;42.652;23.040;2023-08-07T10:48:20;92611.69;;;27.99
28305;BMP280;15569;42.652;23.040;2023-08-07T10:50:51;92608.63;;;28.09
28305;BMP280;15569;42.652;23.040;2023-08-07T10:55:57;92603.22;;;28.54
28305;BMP280;15569;42.652;23.040;2023-08-07T10:58:25;92601.13;;;28.77
28305;BMP280;15569;42.652;23.040;2023-08-07T11:00:52;92600.22;;;29.07
28305;BMP280;15569;42.652;23.040;2023-08-07T11:03:40;92593.19;;;29.51
28305;BMP280;15569;42.652;23.040;2023-08-07T11:06:05;92588.63;;;29.19
28305;BMP280;15569;42.652;23.040;2023-08-07T11:08:31;92587.09;;;29.01
28305;BMP280;15569;42.652;23.040;2023-08-07T11:10:57;92590.44;;;28.83
28305;BMP280;15569;42.652;23.040;2023-08-07T11:13:29;92583.03;;;28.49
28305;BMP280;15569;42.652;23.040;2023-08-07T11:15:54;92591.69;;;27.02
28305;BMP280;15569;42.652;23.040;2023-08-07T11:18:22;92588.31;;;27.84
28305;BMP280;15569;42.652;23.040;2023-08-07T11:20:48;92581.00;;;27.97
28305;BMP280;15569;42.652;23.040;2023-08-07T11:23:13;92586.78;;;28.40
28305;BMP280;15569;42.652;23.040;2023-08-07T11:25:39;92578.41;;;28.40
28305;BMP280;15569;42.652;23.040;2023-08-07T11:28:04;92577.44;;;28.25
28305;BMP280;15569;42.652;23.040;2023-08-07T11:30:30;92577.97;;;28.05
28305;BMP280;15569;42.652;23.040;2023-08-07T11:32:56;92574.00;;;27.98
28305;BMP280;15569;42.652;23.040;2023-08-07T11:35:22;92575.06;;;28.60
28305;BMP280;15569;42.652;23.040;2023-08-07T11:37:48;92575.34;;;28.72
28305;BMP280;15569;42.652;23.040;2023-08-07T11:40:14;92581.19;;;28.40
28305;BMP280;15569;42.652;23.040;2023-08-07T11:42:40;92569.56;;;28.56
28305;BMP280;15569;42.652;23.040;2023-08-07T11:45:07;92573.31;;;28.71
28305;BMP280;15569;42.652;23.040;2023-08-07T11:47:33;92573.06;;;28.79
28305;BMP280;15569;42.652;23.040;2023-08-07T11:49:58;92584.63;;;28.67
28305;BMP280;15569;42.652;23.040;2023-08-07T11:52:24;92575.31;;;28.01
28305;BMP280;15569;42.652;23.040;2023-08-07T11:54:50;92590.53;;;27.22
28305;BMP280;15569;42.652;23.040;2023-08-07T11:57:20;92590.13;;;27.09
28305;BMP280;15569;42.652;23.040;2023-08-07T11:59:51;92581.88;;;26.73
28305;BMP280;15569;42.652;23.040;2023-08-07T12:02:22;92579.19;;;26.99
28305;BMP280;15569;42.652;23.040;2023-08-07T12:04:47;92582.09;;;27.24
28305;BMP280;15569;42.652;23.040;2023-08-07T12:07:17;92578.16;;;27.43
28305;BMP280;15569;42.652;23.040;2023-08-07T12:09:44;92575.78;;;27.56
28305;BMP280;15569;42.652;23.040;2023-08-07T12:12:11;92569.97;;;27.64
28305;BMP280;15569;42.652;23.040;2023-08-07T12:14:38;92564.06;;;27.76
28305;BMP280;15569;42.652;23.040;2023-08-07T12:17:04;92569.47;;;27.84
28305;BMP280;15569;42.652;23.040;2023-08-07T12:19:39;92561.94;;;27.79
28305;BMP280;15569;42.652;23.040;2023-08-07T12:22:06;92579.16;;;27.87
28305;BMP280;15569;42.652;23.040;2023-08-07T12:24:35;92570.78;;;27.87
28305;BMP280;15569;42.652;23.040;2023-08-07T12:27:00;92574.31;;;27.86
28305;BMP280;15569;42.652;23.040;2023-08-07T12:29:25;92576.38;;;27.87
28305;BMP280;15569;42.652;23.040;2023-08-07T12:38:10;92587.53;;;27.60
28305;BMP280;15569;42.652;23.040;2023-08-07T12:40:36;92594.97;;;27.41
28305;BMP280;15569;42.652;23.040;2023-08-07T12:43:03;92593.38;;;27.50
28305;BMP280;15569;42.652;23.040;2023-08-07T12:45:28;92583.25;;;27.63
28305;BMP280;15569;42.652;23.040;2023-08-07T12:47:53;92585.63;;;27.53
28305;BMP280;15569;42.652;23.040;2023-08-07T12:50:19;92580.63;;;27.57
28305;BMP280;15569;42.652;23.040;2023-08-07T12:52:44;92592.56;;;27.54
28305;BMP280;15569;42.652;23.040;2023-08-07T12:55:10;92587.47;;;27.34
28305;BMP280;15569;42.652;23.040;2023-08-07T12:57:38;92589.41;;;27.41
28305;BMP280;15569;42.652;23.040;2023-08-07T13:00:04;92591.66;;;27.33
28305;BMP280;15569;42.652;23.040;2023-08-07T13:02:29;92589.56;;;27.33
28305;BMP280;15569;42.652;23.040;2023-08-07T13:04:55;92595.41;;;27.23
28305;BMP280;15569;42.652;23.040;2023-08-07T13:07:22;92599.41;;;27.30
28305;BMP280;15569;42.652;23.040;2023-08-07T13:09:47;92598.69;;;27.32
28305;BMP280;15569;42.652;23.040;2023-08-07T13:12:13;92607.91;;;27.24
28305;BMP280;15569;42.652;23.040;2023-08-07T13:14:38;92604.22;;;27.34
28305;BMP280;15569;42.652;23.040;2023-08-07T13:17:04;92598.44;;;27.42
28305;BMP280;15569;42.652;23.040;2023-08-07T13:19:29;92597.88;;;27.64
28305;BMP280;15569;42.652;23.040;2023-08-07T13:21:55;92599.66;;;27.78
28305;BMP280;15569;42.652;23.040;2023-08-07T13:24:20;92597.13;;;27.67
28305;BMP280;15569;42.652;23.040;2023-08-07T13:26:46;92598.88;;;27.81
28305;BMP280;15569;42.652;23.040;2023-08-07T13:29:11;92588.16;;;27.63
28305;BMP280;15569;42.652;23.040;2023-08-07T13:31:37;92593.63;;;27.67
28305;BMP280;15569;42.652;23.040;2023-08-07T13:34:02;92602.97;;;28.11
28305;BMP280;15569;42.652;23.040;2023-08-07T13:36:33;92614.06;;;28.88
28305;BMP280;15569;42.652;23.040;2023-08-07T13:38:58;92602.25;;;28.37
28305;BMP280;15569;42.652;23.040;2023-08-07T13:41:25;92610.91;;;28.02
28305;BMP280;15569;42.652;23.040;2023-08-07T13:43:51;92605.88;;;27.80
28305;BMP280;15569;42.652;23.040;2023-08-07T13:46:16;92599.28;;;27.65
28305;BMP280;15569;42.652;23.040;2023-08-07T13:48:44;92609.59;;;27.71
28305;BMP280;15569;42.652;23.040;2023-08-07T13:51:10;92600.78;;;27.60
28305;BMP280;15569;42.652;23.040;2023-08-07T13:53:35;92589.88;;;27.50
28305;BMP280;15569;42.652;23.040;2023-08-07T13:56:01;92604.22;;;27.62
28305;BMP280;15569;42.652;23.040;2023-08-07T13:58:26;92610.94;;;27.45
28305;BMP280;15569;42.652;23.040;2023-08-07T14:00:53;92602.19;;;27.30
28305;BMP280;15569;42.652;23.040;2023-08-07T14:03:18;92612.56;;;27.03
28305;BMP280;15569;42.652;23.040;2023-08-07T14:05:44;92604.50;;;26.89
28305;BMP280;15569;42.652;23.040;2023-08-07T14:08:10;92612.56;;;26.73
28305;BMP280;15569;42.652;23.040;2023-08-07T14:10:36;92618.97;;;26.65
28305;BMP280;15569;42.652;23.040;2023-08-07T14:13:03;92616.81;;;26.33
28305;BMP280;15569;42.652;23.040;2023-08-07T14:15:28;92630.72;;;26.35
28305;BMP280;15569;42.652;23.040;2023-08-07T14:17:53;92637.94;;;26.20
28305;BMP280;15569;42.652;23.040;2023-08-07T14:20:19;92628.25;;;26.17
28305;BMP280;15569;42.652;23.040;2023-08-07T14:22:44;92633.16;;;26.17
28305;BMP280;15569;42.652;23.040;2023-08-07T14:25:10;92627.72;;;26.09
28305;BMP280;15569;42.652;23.040;2023-08-07T14:27:35;92626.03;;;25.87
28305;BMP280;15569;42.652;23.040;2023-08-07T14:30:01;92632.34;;;25.83
28305;BMP280;15569;42.652;23.040;2023-08-07T14:32:27;92636.28;;;25.97
28305;BMP280;15569;42.652;23.040;2023-08-07T14:34:52;92640.78;;;25.79
28305;BMP280;15569;42.652;23.040;2023-08-07T14:37:18;92647.09;;;25.76
28305;BMP280;15569;42.652;23.040;2023-08-07T15:43:50;92653.53;;;27.74
28305;BMP280;15569;42.652;23.040;2023-08-07T15:46:16;92658.97;;;28.60
28305;BMP280;15569;42.652;23.040;2023-08-07T15:48:42;92638.47;;;29.14
28305;BMP280;15569;42.652;23.040;2023-08-07T15:51:07;92628.38;;;29.23
28305;BMP280;15569;42.652;23.040;2023-08-07T15:53:33;92630.56;;;29.21
28305;BMP280;15569;42.652;23.040;2023-08-07T15:55:58;92642.41;;;28.25
28305;BMP280;15569;42.652;23.040;2023-08-07T15:58:24;92652.47;;;29.37
28305;BMP280;15569;42.652;23.040;2023-08-07T16:00:49;92651.81;;;28.14
28305;BMP280;15569;42.652;23.040;2023-08-07T16:03:15;92658.28;;;27.49
28305;BMP280;15569;42.652;23.040;2023-08-07T16:05:43;92652.91;;;27.10
28305;BMP280;15569;42.652;23.040;2023-08-07T16:08:08;92654.09;;;26.87
28305;BMP280;15569;42.652;23.040;2023-08-07T16:10:34;92648.88;;;26.69
28305;BMP280;15569;42.652;23.040;2023-08-07T16:12:59;92652.63;;;26.55
28305;BMP280;15569;42.652;23.040;2023-08-07T16:15:25;92662.56;;;26.46
28305;BMP280;15569;42.652;23.040;2023-08-07T16:17:51;92659.97;;;26.36
28305;BMP280;15569;42.652;23.040;2023-08-07T16:20:18;92654.44;;;26.32
28305;BMP280;15569;42.652;23.040;2023-08-07T16:22:44;92654.56;;;26.28
28305;BMP280;15569;42.652;23.040;2023-08-07T16:25:10;92661.47;;;26.31
28305;BMP280;15569;42.652;23.040;2023-08-07T16:27:36;92666.44;;;26.25
28305;BMP280;15569;42.652;23.040;2023-08-07T16:30:03;92666.69;;;26.13
28305;BMP280;15569;42.652;23.040;2023-08-07T16:32:30;92672.91;;;26.13
28305;BMP280;15569;42.652;23.040;2023-08-07T16:34:57;92674.41;;;26.08
28305;BMP280;15569;42.652;23.040;2023-08-07T16:37:22;92663.31;;;26.04
28305;BMP280;15569;42.652;23.040;2023-08-07T16:39:48;92652.94;;;26.01
28305;BMP280;15569;42.652;23.040;2023-08-07T16:42:13;92657.22;;;25.93
28305;BMP280;15569;42.652;23.040;2023-08-07T16:44:39;92655.97;;;25.87
28305;BMP280;15569;42.652;23.040;2023-08-07T16:47:04;92646.38;;;25.77
28305;BMP280;15569;42.652;23.040;2023-08-07T16:49:31;92647.09;;;25.74
28305;BMP280;15569;42.652;23.040;2023-08-07T16:51:57;92643.03;;;25.69
28305;BMP280;15569;42.652;23.040;2023-08-07T16:54:24;92652.19;;;25.63
28305;BMP280;15569;42.652;23.040;2023-08-07T16:56:49;92641.94;;;25.50
28305;BMP280;15569;42.652;23.040;2023-08-07T16:59:15;92645.47;;;25.46
28305;BMP280;15569;42.652;23.040;2023-08-07T17:01:43;92661.53;;;25.42
28305;BMP280;15569;42.652;23.040;2023-08-07T17:04:09;92657.38;;;25.41
28305;BMP280;15569;42.652;23.040;2023-08-07T17:06:34;92669.22;;;25.37
28305;BMP280;15569;42.652;23.040;2023-08-07T17:08:59;92656.16;;;25.30
28305;BMP280;15569;42.652;23.040;2023-08-07T17:11:25;92658.84;;;25.36
28305;BMP280;15569;42.652;23.040;2023-08-07T17:13:54;92658.25;;;25.29
28305;BMP280;15569;42.652;23.040;2023-08-07T17:16:20;92653.44;;;25.24
28305;BMP280;15569;42.652;23.040;2023-08-07T17:18:45;92655.13;;;25.03
28305;BMP280;15569;42.652;23.040;2023-08-07T17:21:11;92660.69;;;25.03
28305;BMP280;15569;42.652;23.040;2023-08-07T17:23:36;92659.38;;;24.96
28305;BMP280;15569;42.652;23.040;2023-08-07T17:26:01;92658.03;;;24.93
28305;BMP280;15569;42.652;23.040;2023-08-07T17:28:28;92659.47;;;24.88
28305;BMP280;15569;42.652;23.040;2023-08-07T17:30:55;92658.03;;;24.91
28305;BMP280;15569;42.652;23.040;2023-08-07T17:33:21;92649.88;;;24.79
28305;BMP280;15569;42.652;23.040;2023-08-07T17:35:46;92669.94;;;24.85
28305;BMP280;15569;42.652;23.040;2023-08-07T17:38:11;92674.81;;;24.85
28305;BMP280;15569;42.652;23.040;2023-08-07T17:40:39;92678.97;;;24.84
28305;BMP280;15569;42.652;23.040;2023-08-07T17:43:04;92677.75;;;24.73
28305;BMP280;15569;42.652;23.040;2023-08-07T17:45:29;92679.09;;;24.76
28305;BMP280;15569;42.652;23.040;2023-08-07T17:47:59;92695.06;;;24.77
28305;BMP280;15569;42.652;23.040;2023-08-07T17:50:31;92705.50;;;24.75
28305;BMP280;15569;42.652;23.040;2023-08-07T17:52:58;92698.00;;;24.65
28305;BMP280;15569;42.652;23.040;2023-08-07T17:55:24;92711.13;;;24.71
28305;BMP280;15569;42.652;23.040;2023-08-07T17:57:51;92722.25;;;24.71
28305;BMP280;15569;42.652;23.040;2023-08-07T18:00:17;92722.91;;;24.73
28305;BMP280;15569;42.652;23.040;2023-08-07T18:02:42;92720.84;;;24.70
28305;BMP280;15569;42.652;23.040;2023-08-07T18:05:08;92734.00;;;24.75
28305;BMP280;15569;42.652;23.040;2023-08-07T18:07:38;92741.00;;;24.72
28305;BMP280;15569;42.652;23.040;2023-08-07T18:10:04;92741.84;;;24.57
28305;BMP280;15569;42.652;23.040;2023-08-07T18:12:31;92745.97;;;24.60
28305;BMP280;15569;42.652;23.040;2023-08-07T18:14:56;92736.28;;;24.59
28305;BMP280;15569;42.652;23.040;2023-08-07T18:17:23;92741.78;;;24.61
28305;BMP280;15569;42.652;23.040;2023-08-07T18:19:48;92743.22;;;24.58
28305;BMP280;15569;42.652;23.040;2023-08-07T18:22:14;92735.00;;;24.48
28305;BMP280;15569;42.652;23.040;2023-08-07T18:24:39;92719.75;;;24.45
28305;BMP280;15569;42.652;23.040;2023-08-07T18:27:05;92742.63;;;24.47
28305;BMP280;15569;42.652;23.040;2023-08-07T18:29:30;92735.09;;;24.38
28305;BMP280;15569;42.652;23.040;2023-08-07T18:31:56;92739.91;;;24.39
28305;BMP280;15569;42.652;23.040;2023-08-07T18:34:21;92753.16;;;24.35
28305;BMP280;15569;42.652;23.040;2023-08-07T18:36:46;92749.03;;;24.29
28305;BMP280;15569;42.652;23.040;2023-08-07T18:39:12;92749.81;;;24.24
28305;BMP280;15569;42.652;23.040;2023-08-07T18:41:38;92758.75;;;24.30
28305;BMP280;15569;42.652;23.040;2023-08-07T18:44:03;92761.56;;;24.26
28305;BMP280;15569;42.652;23.040;2023-08-07T18:46:29;92750.47;;;24.22
28305;BMP280;15569;42.652;23.040;2023-08-07T18:48:54;92747.63;;;24.30
28305;BMP280;15569;42.652;23.040;2023-08-07T18:51:20;92744.88;;;24.28
28305;BMP280;15569;42.652;23.040;2023-08-07T18:53:46;92742.78;;;24.31
28305;BMP280;15569;42.652;23.040;2023-08-07T18:56:11;92746.34;;;24.19
28305;BMP280;15569;42.652;23.040;2023-08-07T18:58:37;92747.69;;;24.26
28305;BMP280;15569;42.652;23.040;2023-08-07T19:01:02;92740.75;;;24.23
28305;BMP280;15569;42.652;23.040;2023-08-07T19:03:29;92758.16;;;24.20
28305;BMP280;15569;42.652;23.040;2023-08-07T19:05:55;92763.00;;;24.23
28305;BMP280;15569;42.652;23.040;2023-08-07T19:08:20;92764.34;;;24.24